Time;durP1;ratioP1;P1;durP2;ratioP2;P2;SDS_P1;SDS_P2;PMS_P1;PMS_P2;Temp;Humidity;BMP_temperature;BMP_pressure;BME280_temperature;BME280_humidity;BME280_pressure;Samples;Min_cycle;Max_cycle;Signal;HPM_P1;HPM_P2
2023/04/09 00:01:53;;;;;;;;;36.00;30.00;;;;;11.44;54.51;101913.00;5090616;27;45491;-72
2023/04/09 00:04:19;;;;;;;;;29.00;26.00;;;;;11.46;54.20;101913.94;5057895;28;45721;-70
2023/04/09 00:06:45;;;;;;;;;27.25;26.25;;;;;11.59;54.33;101921.13;5056507;28;45422;-74
2023/04/09 00:09:10;;;;;;;;;35.25;30.25;;;;;11.53;54.46;101915.78;5086941;27;45595;-75
2023/04/09 00:11:36;;;;;;;;;33.25;28.25;;;;;11.45;54.25;101909.53;5053994;28;45406;-72
2023/04/09 00:14:01;;;;;;;;;40.25;31.25;;;;;11.58;54.50;101921.09;5056157;28;45572;-71
2023/04/09 00:16:27;;;;;;;;;30.00;25.00;;;;;11.39;54.88;101888.41;5053867;28;45504;-75
2023/04/09 00:18:52;;;;;;;;;34.00;29.75;;;;;11.28;54.89;101883.00;5055629;28;45587;-71
2023/04/09 00:21:19;;;;;;;;;36.50;31.50;;;;;11.50;54.80;101917.47;5054017;28;45964;-67
2023/04/09 00:23:44;;;;;;;;;35.00;25.00;;;;;11.52;54.57;101910.50;5052854;28;46346;-75
2023/04/09 00:26:10;;;;;;;;;29.50;26.75;;;;;11.61;54.45;101908.91;5086045;27;45423;-71
2023/04/09 00:28:36;;;;;;;;;35.00;28.50;;;;;11.63;54.68;101915.09;5058207;28;45417;-71
2023/04/09 00:31:02;;;;;;;;;34.75;27.25;;;;;11.49;54.76;101889.47;5058088;28;45444;-75
2023/04/09 00:33:27;;;;;;;;;35.25;31.75;;;;;11.60;54.24;101893.13;5073755;27;47846;-76
2023/04/09 00:35:53;;;;;;;;;34.00;28.00;;;;;11.60;54.53;101891.44;5053723;28;45381;-73
2023/04/09 00:38:18;;;;;;;;;38.75;33.00;;;;;11.64;54.53;101894.97;5054164;28;45413;-75
2023/04/09 00:40:48;;;;;;;;;40.25;32.75;;;;;11.66;54.75;101903.75;5056798;28;45512;-77
2023/04/09 00:43:13;;;;;;;;;33.75;29.00;;;;;11.60;54.29;101887.88;5058530;28;45562;-79
2023/04/09 00:45:51;;;;;;;;;29.50;27.50;;;;;11.59;54.97;101886.13;5057095;28;45376;-74
2023/04/09 00:48:33;;;;;;;;;33.50;30.00;;;;;11.46;55.21;101883.31;5059877;27;45453;-77
2023/04/09 00:51:31;;;;;;;;;42.25;32.00;;;;;11.55;55.14;101902.69;5045959;28;45430;-77
2023/04/09 00:53:56;;;;;;;;;33.00;28.50;;;;;11.40;55.04;101877.97;5053300;28;46408;-70
2023/04/09 00:56:23;;;;;;;;;32.75;29.75;;;;;11.52;54.92;101898.28;5087591;27;45515;-75
2023/04/09 00:59:23;;;;;;;;;40.50;31.25;;;;;11.56;54.85;101899.22;5092990;27;45496;-75
2023/04/09 01:01:49;;;;;;;;;32.25;26.50;;;;;11.63;54.64;101898.47;5019323;28;45786;-74
2023/04/09 01:04:15;;;;;;;;;27.50;24.50;;;;;11.53;55.00;101863.31;5004536;28;46577;-72
2023/04/09 01:07:30;;;;;;;;;33.00;28.00;;;;;11.66;54.89;101898.50;5050320;28;45609;-73
2023/04/09 01:10:37;;;;;;;;;34.75;29.75;;;;;11.67;54.65;101888.03;5042393;28;45362;-77
2023/04/09 01:13:31;;;;;;;;;30.50;26.25;;;;;11.73;54.74;101887.25;5058292;28;45420;-71
2023/04/09 01:16:09;;;;;;;;;29.75;24.75;;;;;11.84;54.44;101893.53;5059354;28;47023;-70
2023/04/09 01:18:48;;;;;;;;;31.75;21.00;;;;;11.84;54.20;101882.13;5053149;28;45430;-73
2023/04/09 01:21:32;;;;;;;;;28.25;22.75;;;;;11.90;54.15;101892.78;5047135;28;45403;-74
2023/04/09 01:24:41;;;;;;;;;32.75;28.00;;;;;11.96;53.77;101890.25;5053178;28;45525;-74
2023/04/09 01:27:08;;;;;;;;;26.50;24.50;;;;;12.00;53.47;101886.78;5055071;28;45423;-68
2023/04/09 01:29:44;;;;;;;;;34.75;25.00;;;;;11.98;53.82;101883.28;5055671;28;45608;-68
2023/04/09 01:32:11;;;;;;;;;36.50;30.25;;;;;12.01;53.83;101885.94;5054525;28;45393;-67
2023/04/09 01:34:37;;;;;;;;;29.75;28.25;;;;;11.95;53.60;101863.97;5051347;28;45329;-68
2023/04/09 01:37:04;;;;;;;;;31.25;26.50;;;;;12.13;53.01;101879.13;5068048;27;47671;-67
2023/04/09 01:39:30;;;;;;;;;33.00;24.50;;;;;12.18;53.55;101886.19;5049215;28;45809;-69
2023/04/09 01:41:56;;;;;;;;;37.50;29.25;;;;;12.18;53.43;101877.44;5052820;28;45517;-68
2023/04/09 01:44:25;;;;;;;;;34.50;26.00;;;;;12.17;53.32;101876.56;5047716;28;45541;-68
2023/04/09 01:46:50;;;;;;;;;37.25;28.00;;;;;12.24;52.91;101878.41;5050603;28;47633;-67
2023/04/09 01:49:17;;;;;;;;;28.75;23.50;;;;;12.18;53.10;101857.28;5049221;28;45532;-69
2023/04/09 01:51:43;;;;;;;;;32.25;25.75;;;;;12.21;53.43;101866.94;5050635;28;45431;-67
2023/04/09 01:54:09;;;;;;;;;35.00;29.00;;;;;12.18;53.00;101856.41;5050086;28;45840;-67
2023/04/09 01:56:41;;;;;;;;;29.50;25.75;;;;;12.29;52.67;101870.56;5049379;28;45890;-73
2023/04/09 01:59:07;;;;;;;;;33.00;26.50;;;;;12.29;52.61;101863.56;5040440;28;45544;-70
2023/04/09 02:01:38;;;;;;;;;29.00;26.50;;;;;12.30;52.99;101859.19;5048016;28;45395;-75
2023/04/09 02:04:09;;;;;;;;;24.00;21.25;;;;;12.23;53.18;101855.59;5068494;27;45407;-69
2023/04/09 02:06:41;;;;;;;;;26.00;24.00;;;;;12.21;53.38;101862.56;5081901;27;46672;-68
2023/04/09 02:09:08;;;;;;;;;34.75;27.25;;;;;12.21;53.25;101854.69;5051625;28;45489;-71
2023/04/09 02:11:38;;;;;;;;;28.75;23.50;;;;;12.26;52.75;101858.25;5048150;28;45471;-70
2023/04/09 02:14:07;;;;;;;;;26.00;24.00;;;;;12.29;52.88;101854.78;5055792;28;45388;-67
2023/04/09 02:16:35;;;;;;;;;26.75;21.50;;;;;12.32;52.41;101861.84;5070323;28;46733;-67
2023/04/09 02:19:01;;;;;;;;;27.00;23.75;;;;;12.33;52.43;101856.59;5053000;28;45460;-68
2023/04/09 02:21:27;;;;;;;;;30.75;24.50;;;;;12.32;52.46;101851.34;5052675;28;45433;-70
2023/04/09 02:23:54;;;;;;;;;26.25;24.00;;;;;12.28;52.37;101832.03;5050112;28;45596;-68
2023/04/09 02:26:20;;;;;;;;;28.25;23.50;;;;;12.19;52.46;101824.03;5053916;28;46442;-72
2023/04/09 02:28:46;;;;;;;;;37.00;29.50;;;;;12.29;52.83;101842.56;5055204;28;45448;-70
2023/04/09 02:31:11;;;;;;;;;31.00;26.25;;;;;12.26;52.77;101829.38;5055231;28;45688;-72
2023/04/09 02:33:37;;;;;;;;;34.50;27.75;;;;;12.32;52.87;101831.22;5055246;28;45476;-72
2023/04/09 02:36:02;;;;;;;;;28.00;25.25;;;;;12.25;52.34;101819.75;5057138;27;45374;-70
2023/04/09 02:38:28;;;;;;;;;32.75;29.00;;;;;12.27;52.28;101825.91;5074793;27;46072;-74
2023/04/09 02:40:53;;;;;;;;;32.50;27.25;;;;;12.35;52.68;101833.00;5059842;28;45273;-69
2023/04/09 02:43:19;;;;;;;;;32.75;27.00;;;;;12.36;52.06;101832.09;5071811;27;45905;-72
2023/04/09 02:45:45;;;;;;;;;30.00;26.50;;;;;12.26;52.20;101816.22;5070987;27;47512;-72
2023/04/09 02:48:10;;;;;;;;;33.50;25.50;;;;;12.35;52.09;101825.09;5073112;27;45442;-72
2023/04/09 02:50:36;;;;;;;;;30.00;27.75;;;;;12.37;52.46;101821.63;5055179;28;45480;-73
2023/04/09 02:53:02;;;;;;;;;29.50;27.00;;;;;12.30;51.92;101807.53;5055120;28;45401;-76
2023/04/09 02:55:28;;;;;;;;;32.00;24.75;;;;;12.42;52.25;101834.81;5055008;28;45417;-73
2023/04/09 02:57:53;;;;;;;;;24.25;23.25;;;;;12.40;52.16;101834.78;5054486;28;45415;-68
2023/04/09 03:00:19;;;;;;;;;25.00;23.00;;;;;12.41;52.20;101833.03;5070633;27;45346;-74
2023/04/09 03:02:45;;;;;;;;;28.50;23.25;;;;;12.36;52.46;101819.84;5054951;28;45535;-74
2023/04/09 03:05:10;;;;;;;;;28.00;21.50;;;;;12.34;52.41;101818.97;5055088;27;45398;-66
2023/04/09 03:07:36;;;;;;;;;33.00;26.00;;;;;12.37;52.40;101815.50;5054374;28;45483;-67
2023/04/09 03:10:01;;;;;;;;;35.75;26.75;;;;;12.34;52.00;101813.72;5056963;28;45480;-70
2023/04/09 03:12:27;;;;;;;;;33.00;24.75;;;;;12.33;52.35;101819.81;5054143;28;45367;-70
2023/04/09 03:14:52;;;;;;;;;34.00;27.75;;;;;12.16;53.13;101806.47;5054829;28;45867;-69
2023/04/09 03:17:19;;;;;;;;;38.50;31.00;;;;;12.07;53.39;101819.50;5054971;28;45322;-68
2023/04/09 03:19:45;;;;;;;;;28.00;27.00;;;;;12.04;53.57;101815.09;5071457;27;45811;-68
2023/04/09 03:22:10;;;;;;;;;32.25;27.25;;;;;12.06;53.56;101808.13;5053427;28;45453;-68
2023/04/09 03:24:36;;;;;;;;;30.50;27.25;;;;;12.09;52.67;101812.53;5051907;28;47180;-67
2023/04/09 03:27:01;;;;;;;;;32.00;28.50;;;;;12.10;53.15;101814.28;5053513;28;45894;-74
2023/04/09 03:29:27;;;;;;;;;32.00;27.50;;;;;12.12;52.73;101804.69;5054087;28;45649;-67
2023/04/09 03:31:52;;;;;;;;;34.50;28.50;;;;;12.07;53.61;101795.88;5055229;28;45633;-69
2023/04/09 03:34:18;;;;;;;;;38.50;26.75;;;;;12.14;53.24;101815.22;5073708;27;46317;-70
2023/04/09 03:36:43;;;;;;;;;42.50;31.50;;;;;12.07;53.39;101799.38;5055808;28;45626;-74
2023/04/09 03:39:09;;;;;;;;;35.50;31.50;;;;;12.00;53.47;101796.66;5053844;28;45612;-74
2023/04/09 03:41:34;;;;;;;;;31.50;28.50;;;;;12.02;53.30;101801.06;5053630;28;45519;-75
2023/04/09 03:44:00;;;;;;;;;37.25;30.50;;;;;12.05;53.58;101805.47;5073461;27;45471;-75
2023/04/09 03:46:25;;;;;;;;;31.50;26.00;;;;;12.09;53.56;101807.28;5058125;28;45494;-72
2023/04/09 03:48:51;;;;;;;;;27.25;23.75;;;;;12.07;53.15;101798.50;5056616;28;45449;-72
2023/04/09 03:51:17;;;;;;;;;31.50;25.50;;;;;12.00;53.86;101788.75;5054478;28;45730;-72
2023/04/09 03:53:43;;;;;;;;;30.00;23.25;;;;;11.99;53.38;101787.00;5056817;28;46422;-76
2023/04/09 03:56:09;;;;;;;;;29.00;23.25;;;;;11.99;53.36;101792.28;5058426;28;45422;-78
2023/04/09 03:58:35;;;;;;;;;30.25;27.00;;;;;11.90;53.48;101800.91;5043667;28;45507;-76
2023/04/09 04:01:02;;;;;;;;;39.50;29.25;;;;;11.81;53.92;101791.09;5045382;28;45505;-73
2023/04/09 04:03:28;;;;;;;;;35.00;30.75;;;;;11.79;54.08;101784.06;5037616;28;45700;-74
2023/04/09 04:05:59;;;;;;;;;39.25;27.50;;;;;11.80;54.30;101798.97;5034465;28;45765;-78
2023/04/09 04:08:24;;;;;;;;;35.75;29.75;;;;;11.74;54.49;101799.75;5034548;28;45701;-74
2023/04/09 04:10:55;;;;;;;;;37.25;30.50;;;;;11.74;54.01;101805.00;5041676;28;45666;-67
2023/04/09 04:13:20;;;;;;;;;39.75;30.00;;;;;11.66;54.18;101785.66;5069523;27;45572;-76
2023/04/09 04:15:46;;;;;;;;;33.50;29.00;;;;;11.63;54.86;101791.75;5032862;28;45514;-77
2023/04/09 04:18:12;;;;;;;;;42.00;31.50;;;;;11.53;55.03;101781.97;5035855;28;45404;-76
2023/04/09 04:20:38;;;;;;;;;35.50;23.75;;;;;11.55;54.88;101789.84;5038637;28;45512;-68
2023/04/09 04:23:04;;;;;;;;;34.75;29.25;;;;;11.58;54.58;101789.91;5039126;28;46856;-77
2023/04/09 04:25:30;;;;;;;;;36.50;30.75;;;;;11.53;55.04;101792.47;5053823;27;45501;-68
2023/04/09 04:27:56;;;;;;;;;34.50;27.75;;;;;11.41;55.02;101780.06;5040214;28;45548;-72
2023/04/09 04:30:22;;;;;;;;;34.75;28.75;;;;;11.39;55.23;101789.63;5037692;28;46073;-69
2023/04/09 04:32:48;;;;;;;;;37.75;32.00;;;;;11.38;55.39;101795.72;5041599;28;46858;-68
2023/04/09 04:35:14;;;;;;;;;36.25;27.75;;;;;11.22;55.38;101778.88;5050904;28;46093;-66
2023/04/09 04:37:39;;;;;;;;;41.25;31.75;;;;;11.36;55.81;101802.69;5054129;28;45460;-78
2023/04/09 04:40:08;;;;;;;;;34.75;26.75;;;;;11.25;55.24;101780.69;5055609;28;45537;-77
2023/04/09 04:42:34;;;;;;;;;33.50;29.25;;;;;11.38;55.40;101797.47;5044859;28;45589;-71
2023/04/09 04:45:00;;;;;;;;;35.75;28.00;;;;;11.44;55.20;101802.84;5039004;28;45314;-69
2023/04/09 04:47:26;;;;;;;;;35.25;27.75;;;;;11.36;55.19;101789.56;5040101;28;45486;-76
2023/04/09 04:49:51;;;;;;;;;31.00;28.25;;;;;11.37;55.49;101791.34;5044667;28;45396;-74
2023/04/09 04:52:17;;;;;;;;;38.50;31.75;;;;;11.37;55.60;101799.22;5046369;28;46811;-76
2023/04/09 04:54:43;;;;;;;;;38.25;32.00;;;;;11.49;55.25;101808.16;5044302;28;45365;-72
2023/04/09 04:57:09;;;;;;;;;33.25;25.25;;;;;11.55;54.77;101813.47;5041242;28;45589;-72
2023/04/09 04:59:39;;;;;;;;;39.25;29.00;;;;;11.46;55.24;101803.75;5050622;28;45501;-69
2023/04/09 05:02:08;;;;;;;;;38.00;31.50;;;;;11.46;55.30;101816.84;5051821;28;46349;-73
2023/04/09 05:04:33;;;;;;;;;29.25;26.25;;;;;11.25;55.44;101789.41;5048358;28;45520;-67
2023/04/09 05:06:59;;;;;;;;;42.50;32.75;;;;;11.44;55.13;101823.81;5054818;28;45473;-66
2023/04/09 05:09:25;;;;;;;;;37.00;31.50;;;;;11.36;55.58;101810.56;5052080;28;45477;-68
2023/04/09 05:11:50;;;;;;;;;39.00;32.25;;;;;11.43;55.78;101822.03;5054535;28;45961;-74
2023/04/09 05:14:16;;;;;;;;;35.00;29.25;;;;;11.40;55.79;101819.38;5046636;28;45422;-76
2023/04/09 05:16:42;;;;;;;;;33.75;29.75;;;;;11.37;55.19;101816.72;5048961;28;45478;-76
2023/04/09 05:19:10;;;;;;;;;45.50;32.00;;;;;11.23;56.01;101821.72;5062722;27;45720;-72
2023/04/09 05:21:36;;;;;;;;;34.75;30.50;;;;;11.25;56.41;101830.50;5044663;28;46766;-67
2023/04/09 05:24:02;;;;;;;;;31.00;28.00;;;;;11.24;55.98;101829.59;5055693;28;45459;-69
2023/04/09 05:26:28;;;;;;;;;41.75;34.25;;;;;11.05;56.65;101809.16;5056931;28;45406;-75
2023/04/09 05:28:55;;;;;;;;;41.75;32.25;;;;;10.93;56.61;101801.97;5046384;28;45515;-69
2023/04/09 05:31:20;;;;;;;;;40.00;34.25;;;;;11.01;56.56;101820.47;5036534;28;48085;-69
2023/04/09 05:33:46;;;;;;;;;34.50;32.00;;;;;11.09;56.70;101824.09;5037966;28;45474;-73
2023/04/09 05:36:16;;;;;;;;;41.75;33.25;;;;;11.14;56.57;101832.06;5053610;28;45562;-75
2023/04/09 05:38:43;;;;;;;;;39.25;33.00;;;;;10.92;56.42;101794.97;5071124;27;45442;-68
2023/04/09 05:41:08;;;;;;;;;38.75;33.50;;;;;11.01;56.43;101800.38;5046289;28;47036;-66
2023/04/09 05:43:35;;;;;;;;;38.25;32.25;;;;;11.18;56.61;101833.88;5044979;28;45359;-77
2023/04/09 05:46:06;;;;;;;;;34.50;29.25;;;;;11.17;56.72;101838.22;5053379;28;45547;-69
2023/04/09 05:48:35;;;;;;;;;44.00;34.75;;;;;11.13;56.79;101825.03;5059916;28;45362;-70
2023/04/09 05:51:02;;;;;;;;;42.00;32.25;;;;;11.19;56.45;101822.53;5053192;28;48068;-77
2023/04/09 05:53:30;;;;;;;;;36.75;28.50;;;;;11.29;56.79;101840.16;5049007;28;45334;-78
2023/04/09 05:55:56;;;;;;;;;43.25;34.25;;;;;11.30;56.18;101828.84;5048740;28;45420;-70
2023/04/09 05:58:22;;;;;;;;;42.00;36.00;;;;;11.31;56.41;101841.06;5053387;28;45578;-79
2023/04/09 06:00:50;;;;;;;;;42.00;34.50;;;;;11.27;56.34;101831.41;5042577;28;45983;-72
2023/04/09 06:03:15;;;;;;;;;42.75;33.25;;;;;11.26;56.51;101813.91;5040956;28;45429;-72
2023/04/09 06:05:41;;;;;;;;;39.75;31.00;;;;;11.49;55.77;101830.00;5043194;28;45425;-73
2023/04/09 06:08:07;;;;;;;;;40.25;32.75;;;;;11.57;55.85;101824.88;5041919;28;45592;-77
2023/04/09 06:10:32;;;;;;;;;42.75;32.25;;;;;11.72;55.23;101847.84;5039850;28;46743;-77
2023/04/09 06:12:58;;;;;;;;;38.25;32.50;;;;;11.68;55.53;101849.56;5037519;28;45505;-69
2023/04/09 06:15:23;;;;;;;;;40.25;31.50;;;;;11.53;56.01;101842.34;5040375;28;45917;-72
2023/04/09 06:17:49;;;;;;;;;39.25;34.25;;;;;11.63;55.95;101849.47;5044871;28;45594;-71
2023/04/09 06:20:15;;;;;;;;;45.25;34.00;;;;;11.48;55.96;101843.09;5049864;28;45875;-71
2023/04/09 06:22:48;;;;;;;;;47.00;38.00;;;;;11.46;56.16;101841.34;5085595;27;45698;-70
2023/04/09 06:25:13;;;;;;;;;46.50;34.50;;;;;11.61;56.39;101852.94;5057158;28;45482;-67
2023/04/09 06:27:39;;;;;;;;;37.25;32.00;;;;;11.60;56.07;101856.41;5044506;28;45612;-71
2023/04/09 06:30:05;;;;;;;;;42.75;33.00;;;;;11.72;55.44;101864.50;5044259;28;45761;-76
2023/04/09 06:32:31;;;;;;;;;48.25;34.25;;;;;11.79;55.87;101847.97;5064022;28;45480;-77
2023/04/09 06:34:57;;;;;;;;;46.00;36.75;;;;;11.92;55.35;101854.31;5051606;28;45327;-74
2023/04/09 06:37:27;;;;;;;;;41.25;31.25;;;;;11.96;55.28;101857.84;5039872;28;45285;-69
2023/04/09 06:39:53;;;;;;;;;42.25;35.00;;;;;12.00;54.88;101854.41;5042061;28;47738;-75
2023/04/09 06:42:18;;;;;;;;;44.25;36.50;;;;;12.00;55.35;101859.66;5038797;28;45708;-74
2023/04/09 06:44:44;;;;;;;;;49.50;38.75;;;;;11.87;55.42;101835.88;5044551;28;45495;-71
2023/04/09 06:47:10;;;;;;;;;46.75;35.50;;;;;11.97;54.98;101838.63;5041253;28;45421;-68
2023/04/09 06:49:35;;;;;;;;;49.25;35.00;;;;;12.09;55.08;101844.91;5050807;28;45283;-73
2023/04/09 06:52:01;;;;;;;;;45.25;35.25;;;;;12.22;54.50;101850.31;5052127;28;45391;-75
2023/04/09 06:54:29;;;;;;;;;48.75;35.75;;;;;12.33;54.18;101850.47;5052575;28;45508;-76
2023/04/09 06:56:55;;;;;;;;;42.50;35.75;;;;;12.33;53.83;101842.59;5053600;28;45557;-74
2023/04/09 06:59:21;;;;;;;;;52.25;39.75;;;;;12.26;54.08;101845.13;5053736;28;46022;-73
2023/04/09 07:01:47;;;;;;;;;49.75;38.25;;;;;12.17;54.37;101852.00;5050460;27;45893;-79
2023/04/09 07:04:13;;;;;;;;;48.50;38.75;;;;;12.07;54.28;101845.75;5046042;28;45465;-76
2023/04/09 07:06:39;;;;;;;;;51.00;39.00;;;;;12.19;54.22;101848.53;5046637;28;45264;-68
2023/04/09 07:09:05;;;;;;;;;53.25;41.25;;;;;12.19;54.04;101831.91;5051796;28;47056;-70
2023/04/09 07:11:31;;;;;;;;;44.25;37.00;;;;;12.24;53.89;101825.88;5039202;28;45565;-75
2023/04/09 07:13:58;;;;;;;;;46.75;36.25;;;;;12.29;53.85;101834.69;5056870;28;45482;-76
2023/04/09 07:16:23;;;;;;;;;54.75;39.75;;;;;12.37;53.75;101840.03;5049866;28;45719;-71
2023/04/09 07:18:49;;;;;;;;;49.50;37.25;;;;;12.48;53.35;101855.91;5042434;28;45478;-78
2023/04/09 07:21:15;;;;;;;;;49.25;32.75;;;;;12.65;53.51;101856.13;5041273;28;45435;-78
2023/04/09 07:23:41;;;;;;;;;52.25;37.50;;;;;12.62;53.18;101838.53;5047539;28;45529;-74
2023/04/09 07:26:06;;;;;;;;;42.25;35.50;;;;;12.83;53.40;101855.44;5054856;28;45425;-74
2023/04/09 07:28:32;;;;;;;;;42.50;33.50;;;;;13.02;52.78;101851.25;5054620;28;45712;-73
2023/04/09 07:31:01;;;;;;;;;49.50;38.25;;;;;13.13;52.13;101850.47;5071285;28;45770;-78
2023/04/09 07:33:28;;;;;;;;;47.50;37.50;;;;;13.14;51.87;101835.56;5063731;27;45521;-73
2023/04/09 07:35:53;;;;;;;;;42.00;32.25;;;;;13.25;51.91;101833.91;5084068;27;45453;-72
2023/04/09 07:38:19;;;;;;;;;54.00;39.00;;;;;13.48;51.40;101849.06;5048410;28;46312;-72
2023/04/09 07:40:44;;;;;;;;;48.75;39.25;;;;;13.56;51.48;101852.63;5040758;28;45515;-71
2023/04/09 07:43:10;;;;;;;;;49.25;38.25;;;;;13.34;51.18;101822.63;5066969;27;45543;-69
2023/04/09 07:45:36;;;;;;;;;50.00;38.50;;;;;13.47;51.20;101842.88;5047954;28;45472;-68
2023/04/09 07:48:01;;;;;;;;;44.25;36.00;;;;;13.59;51.60;101850.00;5049468;28;46373;-74
2023/04/09 07:50:27;;;;;;;;;44.50;35.25;;;;;13.57;50.80;101826.31;5046786;28;45590;-68
2023/04/09 07:52:53;;;;;;;;;52.50;37.75;;;;;13.66;51.01;101845.66;5051082;28;45558;-76
2023/04/09 07:55:19;;;;;;;;;54.75;40.00;;;;;13.50;50.82;101829.78;5070455;28;45732;-77
2023/04/09 07:57:44;;;;;;;;;51.25;39.00;;;;;13.56;50.93;101856.13;5040720;28;45738;-69
2023/04/09 08:00:11;;;;;;;;;44.50;35.00;;;;;13.49;51.08;101843.78;5049362;28;45292;-67
2023/04/09 08:02:36;;;;;;;;;45.50;36.75;;;;;13.34;51.80;101857.72;5053024;28;45413;-75
2023/04/09 08:05:02;;;;;;;;;49.00;36.50;;;;;13.14;52.21;101851.34;5054486;28;45427;-75
2023/04/09 08:07:28;;;;;;;;;35.75;31.50;;;;;13.17;52.59;101854.03;5047383;28;46002;-69
2023/04/09 08:09:53;;;;;;;;;51.50;40.00;;;;;13.21;51.85;101854.91;5050650;28;45421;-72
2023/04/09 08:12:19;;;;;;;;;48.50;38.00;;;;;13.23;52.09;101859.31;5049650;28;45428;-67
2023/04/09 08:14:45;;;;;;;;;53.50;35.75;;;;;13.38;52.13;101866.50;5039891;28;45521;-71
2023/04/09 08:17:11;;;;;;;;;43.50;36.50;;;;;13.42;52.14;101868.28;5047646;28;46418;-76
2023/04/09 08:19:36;;;;;;;;;43.75;36.00;;;;;13.49;52.30;101859.56;5047110;28;45524;-74
2023/04/09 08:22:02;;;;;;;;;43.50;35.50;;;;;13.61;52.00;101852.66;5052188;28;45458;-77
2023/04/09 08:24:28;;;;;;;;;41.00;34.25;;;;;13.64;51.19;101852.66;5054631;28;45477;-77
2023/04/09 08:26:53;;;;;;;;;49.00;37.75;;;;;13.87;51.22;101872.13;5054395;28;45989;-70
2023/04/09 08:29:19;;;;;;;;;47.75;39.00;;;;;13.75;50.88;101862.41;5051962;28;45421;-69
2023/04/09 08:31:44;;;;;;;;;56.75;40.25;;;;;13.67;50.78;101844.81;5053904;28;45476;-78
2023/04/09 08:34:11;;;;;;;;;52.25;38.75;;;;;13.70;51.35;101829.03;5069999;28;45637;-78
2023/04/09 08:36:37;;;;;;;;;40.25;34.00;;;;;13.96;50.42;101845.88;5051467;28;47569;-74
2023/04/09 08:39:03;;;;;;;;;43.00;33.75;;;;;14.11;50.71;101849.44;5056180;28;45500;-73
2023/04/09 08:41:29;;;;;;;;;39.50;33.25;;;;;14.24;50.65;101848.66;5054181;28;45800;-72
2023/04/09 08:43:55;;;;;;;;;49.00;36.25;;;;;14.49;50.00;101846.09;5053827;28;45508;-71
2023/04/09 08:46:23;;;;;;;;;47.75;37.00;;;;;14.67;49.56;101846.19;5056518;28;46473;-71
2023/04/09 08:48:50;;;;;;;;;54.00;39.00;;;;;14.67;49.32;101840.06;5052801;28;45418;-69
2023/04/09 08:51:21;;;;;;;;;49.25;36.25;;;;;14.57;49.23;101841.78;5053037;28;45942;-69
2023/04/09 08:53:52;;;;;;;;;50.75;36.00;;;;;14.56;49.01;101840.00;5068179;27;45448;-69
2023/04/09 08:56:18;;;;;;;;;43.25;38.00;;;;;14.63;49.29;101833.88;5051407;28;48203;-76
2023/04/09 08:58:45;;;;;;;;;52.50;38.75;;;;;14.73;49.53;101835.66;5068813;28;45475;-70
2023/04/09 09:01:21;;;;;;;;;49.00;39.00;;;;;14.78;49.10;101831.28;5070618;27;45551;-68
2023/04/09 09:04:05;;;;;;;;;44.75;37.75;;;;;14.86;48.54;101826.03;5070383;27;45534;-71
2023/04/09 09:06:38;;;;;;;;;50.75;38.25;;;;;14.89;48.96;101831.31;5068565;27;45400;-71
2023/04/09 09:09:10;;;;;;;;;49.75;38.00;;;;;14.89;48.62;101830.44;5051142;28;45672;-72
2023/04/09 09:11:40;;;;;;;;;38.25;32.25;;;;;14.86;48.97;101814.59;5052837;28;45615;-73
2023/04/09 09:14:14;;;;;;;;;44.25;35.25;;;;;15.13;48.68;101829.56;5055213;28;45348;-77
2023/04/09 09:16:42;;;;;;;;;43.75;37.25;;;;;15.19;48.59;101827.81;5056902;28;45445;-76
2023/04/09 09:19:35;;;;;;;;;45.00;38.00;;;;;15.16;48.58;101805.81;5056744;28;45416;-73
2023/04/09 09:22:03;;;;;;;;;53.00;36.00;;;;;15.32;48.28;101822.53;5060277;28;45642;-73
2023/04/09 09:24:31;;;;;;;;;46.00;34.75;;;;;15.33;48.97;101804.06;5058938;28;45590;-76
2023/04/09 09:26:57;;;;;;;;;44.00;35.75;;;;;15.56;47.51;101833.06;5075127;27;45407;-74
2023/04/09 09:29:23;;;;;;;;;41.25;33.75;;;;;15.51;47.39;101821.63;5075806;27;45279;-69
2023/04/09 09:31:51;;;;;;;;;47.25;34.50;;;;;15.67;46.72;101822.50;5058792;28;45405;-74
2023/04/09 09:34:20;;;;;;;;;41.00;32.75;;;;;15.74;46.25;101829.56;5060045;28;45468;-76
2023/04/09 09:36:46;;;;;;;;;34.00;29.75;;;;;15.61;46.11;101814.56;5058158;28;47525;-69
2023/04/09 09:39:13;;;;;;;;;31.75;29.75;;;;;15.75;46.17;101814.59;5075597;27;45495;-71
2023/04/09 09:41:42;;;;;;;;;36.75;33.00;;;;;15.84;45.92;101806.66;5060107;27;45465;-68
2023/04/09 09:44:10;;;;;;;;;34.25;30.50;;;;;15.92;45.88;101799.56;5060168;28;45369;-69
2023/04/09 09:46:38;;;;;;;;;35.00;27.25;;;;;15.95;45.56;101802.22;5059587;28;45353;-70
2023/04/09 09:49:04;;;;;;;;;37.75;31.75;;;;;15.81;45.71;101791.69;5059758;28;45425;-70
2023/04/09 09:51:31;;;;;;;;;33.75;27.50;;;;;15.97;46.10;101794.25;5057390;28;45696;-71
2023/04/09 09:53:58;;;;;;;;;25.75;23.75;;;;;16.17;45.27;101792.44;5055756;27;45484;-75
2023/04/09 09:56:31;;;;;;;;;36.00;29.25;;;;;16.39;44.72;101798.50;5070292;27;47462;-68
2023/04/09 09:59:18;;;;;;;;;33.00;24.50;;;;;16.31;44.09;101795.03;5059304;28;45291;-71
2023/04/09 10:01:46;;;;;;;;;27.75;21.25;;;;;16.44;44.37;101794.06;5045323;28;45480;-72
2023/04/09 10:04:16;;;;;;;;;24.75;22.50;;;;;16.49;43.75;101775.50;5055570;28;45460;-72
2023/04/09 10:06:44;;;;;;;;;29.00;26.50;;;;;16.67;43.80;101795.69;5089911;27;45772;-71
2023/04/09 10:09:10;;;;;;;;;21.75;14.50;;;;;16.78;43.23;101790.34;5059096;27;45820;-69
2023/04/09 10:11:37;;;;;;;;;26.25;23.75;;;;;16.81;42.10;101790.34;5058416;28;45438;-74
2023/04/09 10:14:06;;;;;;;;;31.00;25.25;;;;;16.75;43.82;101784.19;5055509;28;45601;-72
2023/04/09 10:16:32;;;;;;;;;35.75;29.75;;;;;16.93;42.44;101788.47;5054910;28;46342;-68
2023/04/09 10:19:00;;;;;;;;;33.75;23.75;;;;;16.85;42.07;101787.69;5087879;27;45524;-72
2023/04/09 10:21:44;;;;;;;;;27.00;20.75;;;;;17.00;42.59;101785.81;5070782;27;45563;-71
2023/04/09 10:24:10;;;;;;;;;30.00;26.00;;;;;17.09;41.40;101783.09;5055277;28;45782;-70
2023/04/09 10:26:39;;;;;;;;;30.00;26.25;;;;;17.15;41.76;101783.00;5054447;28;46658;-68
2023/04/09 10:29:08;;;;;;;;;31.00;26.25;;;;;17.36;41.38;101780.16;5052902;28;46576;-69
2023/04/09 10:32:01;;;;;;;;;33.75;28.00;;;;;17.37;41.21;101778.44;5070001;27;45446;-73
2023/04/09 10:34:27;;;;;;;;;34.25;31.00;;;;;17.40;41.12;101761.63;5054706;28;45508;-69
2023/04/09 10:36:57;;;;;;;;;31.25;26.00;;;;;17.61;40.69;101772.00;5054614;28;45762;-72
2023/04/09 10:39:28;;;;;;;;;33.00;25.67;;;;;17.88;41.16;101767.31;5054871;28;45318;-69
2023/04/09 10:41:57;;;;;;;;;33.75;30.50;;;;;18.01;39.61;101772.44;5055452;28;45458;-71
2023/04/09 10:44:27;;;;;;;;;31.67;29.00;;;;;17.91;39.73;101756.66;5075460;28;45646;-73
2023/04/09 10:46:55;;;;;;;;;35.00;27.50;;;;;18.00;39.36;101764.50;5057706;28;45994;-70
2023/04/09 10:49:23;;;;;;;;;35.75;28.75;;;;;18.09;39.65;101755.56;5091549;27;46122;-73
2023/04/09 10:52:12;;;;;;;;;28.75;22.25;;;;;18.16;38.81;101757.25;5056382;28;45398;-72
2023/04/09 10:54:42;;;;;;;;;30.00;26.00;;;;;18.37;38.58;101756.94;5054865;28;45534;-71
2023/04/09 10:57:08;;;;;;;;;22.00;21.33;;;;;18.58;38.31;101752.22;5086325;27;46761;-69
2023/04/09 10:59:35;;;;;;;;;22.33;21.33;;;;;18.76;38.34;101761.69;5053963;28;45477;-70
2023/04/09 11:02:01;;;;;;;;;30.67;26.67;;;;;18.72;37.77;101744.03;5069843;27;45816;-69
2023/04/09 11:04:40;;;;;;;;;24.67;22.00;;;;;18.66;37.48;101750.34;5055921;28;45517;-69
2023/04/09 11:07:07;;;;;;;;;21.67;19.33;;;;;18.76;37.80;101746.66;5046451;28;46202;-70
2023/04/09 11:09:36;;;;;;;;;26.00;21.67;;;;;19.02;38.25;101761.28;5050756;28;45492;-69
2023/04/09 11:12:02;;;;;;;;;26.33;18.67;;;;;19.31;37.86;101747.50;5053169;28;45333;-70
2023/04/09 11:14:28;;;;;;;;;25.67;20.00;;;;;19.66;37.01;101743.31;5052068;28;45367;-70